createdAt,value
2019-01-05T00:02:13.107Z,75.74
2019-01-05T00:04:59.746Z,75.85
2019-01-05T00:07:45.924Z,76.06
2019-01-05T00:10:32.586Z,76.20
2019-01-05T00:13:19.166Z,76.25
2019-01-05T00:16:05.910Z,76.36
2019-01-05T00:18:52.524Z,76.50
2019-01-05T00:22:00.440Z,76.59
2019-01-05T00:24:47.072Z,76.59
2019-01-05T00:27:46.381Z,76.77
2019-01-05T00:30:33.026Z,76.81
2019-01-05T00:33:39.325Z,76.83
2019-01-05T00:36:47.743Z,76.83
2019-01-05T00:39:34.362Z,76.87
2019-01-05T00:42:42.286Z,76.78
2019-01-05T00:45:19.294Z,76.71
2019-01-05T00:48:27.201Z,76.67
2019-01-05T00:54:34.571Z,76.72
2019-01-05T00:57:21.494Z,76.76
2019-01-05T01:03:09.559Z,76.70
2019-01-05T01:05:48.621Z,76.72
2019-01-05T01:08:35.235Z,76.69
2019-01-05T01:11:21.878Z,76.58
2019-01-05T01:14:27.995Z,76.59
2019-01-05T01:17:14.644Z,76.59
2019-01-05T01:20:01.266Z,76.39
2019-01-05T01:22:47.915Z,76.39
2019-01-05T01:28:54.927Z,76.48
2019-01-05T01:31:41.781Z,76.45
2019-01-05T01:34:28.514Z,76.50
2019-01-05T01:37:15.179Z,76.45
2019-01-05T01:43:04.365Z,76.47
2019-01-05T01:45:51.089Z,76.43
2019-01-05T01:52:00.689Z,76.58
2019-01-05T01:54:47.420Z,76.58
2019-01-05T02:00:35.417Z,76.36
2019-01-05T02:03:43.533Z,76.30
2019-01-05T02:19:35.761Z,76.36
2019-01-05T02:22:49.814Z,76.29
2019-01-05T02:29:21.446Z,76.51
2019-01-05T02:32:47.046Z,76.42
2019-01-05T02:36:13.314Z,76.57
2019-01-05T02:39:38.893Z,76.57
2019-01-05T02:42:49.874Z,76.58
2019-01-05T02:46:15.425Z,76.54
2019-01-05T02:52:57.121Z,76.47
2019-01-05T02:56:22.684Z,76.57
2019-01-05T02:59:48.287Z,76.71
2019-01-05T03:03:13.886Z,76.71
2019-01-05T03:06:39.493Z,76.79
2019-01-05T03:10:05.052Z,76.82
2019-01-05T03:13:30.606Z,76.72
2019-01-05T03:16:56.185Z,76.63
2019-01-05T03:24:00.859Z,76.52
2019-01-05T03:27:18.697Z,76.61
2019-01-05T03:30:44.268Z,76.63
2019-01-05T03:34:09.911Z,76.64
2019-01-05T03:37:24.105Z,76.76
2019-01-05T03:40:49.689Z,76.82
2019-01-05T03:43:49.255Z,76.83
2019-01-05T03:47:14.859Z,76.83
2019-01-05T03:53:51.200Z,77.22
2019-01-05T03:57:16.755Z,77.24
2019-01-05T04:00:27.054Z,77.26
2019-01-05T04:03:50.165Z,77.33
2019-01-05T04:07:15.824Z,77.45
2019-01-05T04:10:41.384Z,77.35
2019-01-05T04:14:06.974Z,77.49
2019-01-05T04:17:03.040Z,77.56
2019-01-05T04:20:11.458Z,77.56
2019-01-05T04:23:36.630Z,77.67
2019-01-05T04:27:02.197Z,77.60
2019-01-05T04:33:55.372Z,77.56
2019-01-05T04:37:21.036Z,77.60
2019-01-05T04:41:05.600Z,77.55
2019-01-05T04:44:46.163Z,77.56
2019-01-05T04:48:22.400Z,77.55
2019-01-05T04:51:51.399Z,77.50
2019-01-05T04:55:19.224Z,77.45
2019-01-05T04:58:33.034Z,77.40
2019-01-05T05:01:46.648Z,77.45
2019-01-05T05:05:16.980Z,77.45
2019-01-05T05:09:04.824Z,77.37
2019-01-05T05:12:12.111Z,77.30
2019-01-05T05:15:25.341Z,77.21
2019-01-05T05:18:43.825Z,77.37
2019-01-05T05:22:03.387Z,77.51
2019-01-05T05:25:28.872Z,77.56
2019-01-05T05:29:03.520Z,77.57
2019-01-05T05:32:17.767Z,77.68
2019-01-05T05:35:49.062Z,77.69
2019-01-05T05:39:17.738Z,77.73
2019-01-05T05:42:57.565Z,77.73
2019-01-05T05:46:23.122Z,77.70
2019-01-05T05:49:43.981Z,77.75
2019-01-05T05:53:09.608Z,77.78
2019-01-05T05:59:41.973Z,77.64
2019-01-05T06:02:59.277Z,77.64
2019-01-05T06:09:35.453Z,77.70
2019-01-05T06:13:01.027Z,77.64
2019-01-05T06:16:20.791Z,77.49
2019-01-05T06:19:46.339Z,77.52
2019-01-05T06:23:04.962Z,77.45
2019-01-05T06:26:19.255Z,77.52
2019-01-05T06:29:47.901Z,77.60
2019-01-05T06:33:13.469Z,77.60
2019-01-05T06:36:39.065Z,77.78
2019-01-05T06:39:53.293Z,77.79
2019-01-05T06:43:18.904Z,77.71
2019-01-05T06:46:18.183Z,77.79
2019-01-05T06:49:43.784Z,77.79
2019-01-05T06:53:09.352Z,77.73
2019-01-05T06:56:34.954Z,77.73
2019-01-05T07:06:35.488Z,77.94
2019-01-05T07:10:03.870Z,77.94
2019-01-05T07:13:29.426Z,78.30
2019-01-05T07:16:54.987Z,78.77
2019-01-05T07:20:20.612Z,78.18
2019-01-05T07:23:46.178Z,77.61
2019-01-05T07:27:11.768Z,77.35
2019-01-05T07:30:11.302Z,77.11
2019-01-05T07:33:36.891Z,77.11
2019-01-05T07:37:02.548Z,77.41
2019-01-05T07:40:28.109Z,77.61
2019-01-05T07:43:39.481Z,77.77
2019-01-05T07:47:05.050Z,77.86
2019-01-05T07:50:33.678Z,78.00
2019-01-05T07:53:59.257Z,78.04
2019-01-05T07:57:24.825Z,78.05
2019-01-05T08:00:50.459Z,78.14
2019-01-05T08:04:16.063Z,77.78
2019-01-05T08:07:41.667Z,77.87
2019-01-05T08:11:10.304Z,77.91
2019-01-05T08:14:35.919Z,77.86
2019-01-05T08:18:01.491Z,77.68
2019-01-05T08:21:27.073Z,77.77
2019-01-05T08:24:52.636Z,77.91
2019-01-05T08:28:18.213Z,77.95
2019-01-05T08:31:43.834Z,77.92
2019-01-05T08:35:07.482Z,77.98
2019-01-05T08:38:33.097Z,78.03
2019-01-05T08:41:58.657Z,78.03
2019-01-05T08:45:24.275Z,78.13
2019-01-05T08:48:48.535Z,78.14
2019-01-05T08:52:14.125Z,78.05
2019-01-05T08:55:39.717Z,78.11
2019-01-05T08:59:05.319Z,78.03
2019-01-05T09:02:30.909Z,78.08
2019-01-05T09:05:56.503Z,77.90
2019-01-05T09:08:56.263Z,77.76
2019-01-05T09:12:21.869Z,77.76
2019-01-05T09:15:59.179Z,77.83
2019-01-05T09:19:24.756Z,77.80
2019-01-05T09:22:47.402Z,77.75
2019-01-05T09:25:52.711Z,77.66
2019-01-05T09:29:31.749Z,77.63
2019-01-05T09:33:09.530Z,77.61
2019-01-05T09:36:45.287Z,77.50
2019-01-05T09:40:14.445Z,77.49
2019-01-05T09:43:53.670Z,77.30
2019-01-05T09:47:27.715Z,77.25
2019-01-05T09:50:37.319Z,77.38
2019-01-05T09:54:19.679Z,77.46
2019-01-05T09:57:27.434Z,77.46
2019-01-05T10:00:45.404Z,77.27
2019-01-05T10:04:00.869Z,77.23
2019-01-05T10:07:48.815Z,77.07
2019-01-05T10:11:26.790Z,77.07
2019-01-05T10:15:04.508Z,76.98
2019-01-05T10:18:52.562Z,76.92
2019-01-05T10:22:14.039Z,76.69
2019-01-05T10:26:03.386Z,76.71
2019-01-05T10:29:25.424Z,76.50
2019-01-05T10:32:52.150Z,76.39
2019-01-05T10:36:23.616Z,76.26
2019-01-05T10:39:51.573Z,76.17
2019-01-05T10:42:57.335Z,76.08
2019-01-05T10:46:07.339Z,75.88
2019-01-05T10:49:50.867Z,76.06
2019-01-05T10:53:21.851Z,76.16
2019-01-05T10:56:36.893Z,76.21
2019-01-05T11:00:30.820Z,75.96
2019-01-05T11:03:55.166Z,75.79
2019-01-05T11:07:42.186Z,75.71
2019-01-05T11:11:11.099Z,75.81
2019-01-05T11:15:02.297Z,75.77
2019-01-05T11:18:26.475Z,75.80
2019-01-05T11:21:53.991Z,75.85
2019-01-05T11:24:59.978Z,76.02
2019-01-05T11:28:35.665Z,76.09
2019-01-05T11:32:10.745Z,76.00
2019-01-05T11:35:50.865Z,75.87
2019-01-05T11:39:32.457Z,76.03
2019-01-05T11:42:56.726Z,75.91
2019-01-05T11:46:22.315Z,75.83
2019-01-05T11:49:47.893Z,75.69
2019-01-05T11:53:13.444Z,75.38
2019-01-05T11:56:39.062Z,75.30
2019-01-05T11:59:47.957Z,75.30
2019-01-05T12:03:16.367Z,75.36
2019-01-05T12:06:41.934Z,75.52
2019-01-05T12:10:07.532Z,75.17
2019-01-05T12:13:33.150Z,75.38
2019-01-05T12:16:56.974Z,75.58
2019-01-05T12:20:22.598Z,75.55
2019-01-05T12:23:38.568Z,75.36
2019-01-05T12:27:04.198Z,75.32
2019-01-05T12:30:29.780Z,75.45
2019-01-05T12:33:55.405Z,75.46
2019-01-05T12:37:20.954Z,75.45
2019-01-05T12:40:49.548Z,75.30
2019-01-05T12:44:15.136Z,74.72
2019-01-05T12:47:40.712Z,74.76
2019-01-05T12:51:06.284Z,75.07
2019-01-05T12:54:19.186Z,75.25
2019-01-05T12:57:47.566Z,75.43
2019-01-05T13:04:49.996Z,75.25
2019-01-05T13:08:18.466Z,75.51
2019-01-05T13:11:44.024Z,75.33
2019-01-05T13:15:01.900Z,75.34
2019-01-05T13:18:27.512Z,75.47
2019-01-05T13:21:50.021Z,75.67
2019-01-05T13:25:00.483Z,75.80
2019-01-05T13:28:07.727Z,75.83
2019-01-05T13:31:57.501Z,75.84
2019-01-05T13:35:16.218Z,76.04
2019-01-05T13:38:19.385Z,76.26
2019-01-05T13:41:51.909Z,76.30
2019-01-05T13:44:54.761Z,76.22
2019-01-05T13:47:59.872Z,76.41
2019-01-05T13:51:15.771Z,76.50
2019-01-05T13:54:05.340Z,76.54
2019-01-05T13:56:48.066Z,76.60
2019-01-05T13:59:32.715Z,76.73
2019-01-05T14:02:28.013Z,76.69
2019-01-05T14:05:20.353Z,76.89
2019-01-05T14:08:05.085Z,76.99
2019-01-05T14:10:51.868Z,77.08
2019-01-05T14:13:36.773Z,77.13
2019-01-05T14:16:25.409Z,77.11
2019-01-05T14:19:09.987Z,77.16
2019-01-05T14:21:54.655Z,77.21
2019-01-05T14:24:56.059Z,77.46
2019-01-05T14:27:47.953Z,77.49
2019-01-05T14:30:46.507Z,77.57
2019-01-05T14:33:38.565Z,77.62
2019-01-05T14:36:23.214Z,77.66
2019-01-05T14:39:13.166Z,77.66
2019-01-05T14:41:51.606Z,77.73
2019-01-05T14:44:46.753Z,77.74
2019-01-05T14:47:50.938Z,77.78
2019-01-05T14:50:52.084Z,77.78
2019-01-05T14:53:36.991Z,77.90
2019-01-05T14:56:23.256Z,77.90
2019-01-05T14:59:09.504Z,77.88
2019-01-05T15:01:58.526Z,77.91
2019-01-05T15:04:43.391Z,77.94
2019-01-05T15:07:27.879Z,77.91
2019-01-05T15:10:12.708Z,77.94
2019-01-05T15:12:57.230Z,77.94
2019-01-05T15:15:50.210Z,78.03
2019-01-05T15:18:37.523Z,78.00
2019-01-05T15:21:22.443Z,78.06
2019-01-05T15:24:08.690Z,78.18
2019-01-05T15:26:54.848Z,78.13
2019-01-05T15:29:41.037Z,78.15
2019-01-05T15:32:27.270Z,78.15
2019-01-05T15:35:13.556Z,78.18
2019-01-05T15:37:59.778Z,78.14
2019-01-05T15:40:46.046Z,78.15
2019-01-05T15:43:32.521Z,78.19
2019-01-05T15:46:18.686Z,78.27
2019-01-05T15:49:04.933Z,78.28
2019-01-05T15:51:51.124Z,78.22
2019-01-05T15:54:37.398Z,78.21
2019-01-05T15:57:23.661Z,78.27
2019-01-05T16:00:09.919Z,78.33
2019-01-05T16:02:56.202Z,78.39
2019-01-05T16:05:42.443Z,78.38
2019-01-05T16:08:28.708Z,78.41
2019-01-05T16:11:14.826Z,78.44
2019-01-05T16:14:01.393Z,78.43
2019-01-05T16:16:47.641Z,78.41
2019-01-05T16:19:33.899Z,78.38
2019-01-05T16:22:20.135Z,78.41
2019-01-05T16:25:06.389Z,78.41
2019-01-05T16:27:43.055Z,78.42
2019-01-05T16:30:29.648Z,78.42
2019-01-05T16:33:15.889Z,78.42
2019-01-05T16:36:02.123Z,78.45
2019-01-05T16:38:48.348Z,78.51
2019-01-05T16:41:34.586Z,78.52
2019-01-05T16:47:21.373Z,78.58
2019-01-05T16:50:07.645Z,78.54
2019-01-05T16:52:52.591Z,78.58
2019-01-05T16:55:38.800Z,78.57
2019-01-05T16:58:24.936Z,78.57
2019-01-05T17:01:11.144Z,78.55
2019-01-05T17:03:57.403Z,78.47
2019-01-05T17:06:43.615Z,78.30
2019-01-05T17:09:29.863Z,78.30
2019-01-05T17:12:16.086Z,78.30
2019-01-05T17:15:16.700Z,78.33
2019-01-05T17:17:57.034Z,78.41
2019-01-05T17:20:43.371Z,78.33
2019-01-05T17:23:29.639Z,78.37
2019-01-05T17:26:15.903Z,78.38
2019-01-05T17:29:02.113Z,78.45
2019-01-05T17:34:54.486Z,78.61
2019-01-05T17:37:41.624Z,78.62
2019-01-05T17:40:33.624Z,78.64
2019-01-05T17:46:17.014Z,78.64
2019-01-05T17:49:03.320Z,78.53
2019-01-05T17:51:49.580Z,78.49
2019-01-05T17:54:38.587Z,78.45
2019-01-05T17:57:24.826Z,78.51
2019-01-05T18:00:11.123Z,78.41
2019-01-05T18:02:59.683Z,78.39
2019-01-05T18:05:47.335Z,78.39
2019-01-05T18:08:33.604Z,78.41
2019-01-05T18:11:19.899Z,78.38
2019-01-05T18:14:06.178Z,78.37
2019-01-05T18:16:52.555Z,78.35
2019-01-05T18:19:59.077Z,78.32
2019-01-05T18:22:45.347Z,78.26
2019-01-05T18:25:31.623Z,78.24
2019-01-05T18:28:17.888Z,78.36
2019-01-05T18:31:04.130Z,78.49
2019-01-05T18:33:50.597Z,78.38
2019-01-05T18:36:30.586Z,78.09
2019-01-05T18:39:16.849Z,78.04
2019-01-05T18:42:03.111Z,78.03
2019-01-05T18:44:49.455Z,78.11
2019-01-05T18:47:35.720Z,78.15
2019-01-05T18:50:15.685Z,78.21
2019-01-05T18:53:01.952Z,78.23
2019-01-05T18:55:48.228Z,78.37
2019-01-05T18:58:34.501Z,78.50
2019-01-05T19:01:20.760Z,78.49
2019-01-05T19:04:07.059Z,78.43
2019-01-05T19:06:50.531Z,78.09
2019-01-05T19:09:56.262Z,77.94
2019-01-05T19:12:42.819Z,77.91
2019-01-05T19:15:48.503Z,77.89
2019-01-05T19:18:34.831Z,78.07
2019-01-05T19:21:21.098Z,78.12
2019-01-05T19:24:07.349Z,78.26
2019-01-05T19:26:55.636Z,78.29
2019-01-05T19:29:42.259Z,78.37
2019-01-05T19:32:28.500Z,78.36
2019-01-05T19:35:14.838Z,78.37
2019-01-05T19:38:01.502Z,78.39
2019-01-05T19:40:48.258Z,78.47
2019-01-05T19:43:34.660Z,78.51
2019-01-05T19:46:21.056Z,78.53
2019-01-05T19:49:07.341Z,78.58
2019-01-05T19:51:54.981Z,78.60
2019-01-05T19:54:41.620Z,78.58
2019-01-05T19:57:30.073Z,78.57
2019-01-05T20:00:16.476Z,78.54
2019-01-05T20:03:02.790Z,78.75
2019-01-05T20:05:50.295Z,78.94
2019-01-05T20:08:56.040Z,78.96
2019-01-05T20:11:40.430Z,78.96
2019-01-05T20:14:26.779Z,78.54
2019-01-05T20:17:13.354Z,78.35
2019-01-05T20:19:59.680Z,78.34
2019-01-05T20:22:46.049Z,78.33
2019-01-05T20:25:34.970Z,78.34
2019-01-05T20:28:21.306Z,78.42
2019-01-05T20:31:07.679Z,78.43
2019-01-05T20:33:54.018Z,78.50
2019-01-05T20:36:40.370Z,78.55
2019-01-05T20:39:25.615Z,78.62
2019-01-05T20:42:11.951Z,78.63
2019-01-05T20:44:58.236Z,78.63
2019-01-05T20:47:44.623Z,78.65
2019-01-05T20:50:31.286Z,78.69
2019-01-05T20:53:17.596Z,78.71
2019-01-05T20:56:03.895Z,78.69
2019-01-05T20:58:48.963Z,78.69
2019-01-05T21:01:35.256Z,78.74
2019-01-05T21:04:21.614Z,78.77
2019-01-05T21:07:08.005Z,78.78
2019-01-05T21:09:46.665Z,78.81
2019-01-05T21:12:33.239Z,78.75
2019-01-05T21:15:19.733Z,78.78
2019-01-05T21:18:06.074Z,78.80
2019-01-05T21:20:53.352Z,78.81
2019-01-05T21:26:43.003Z,78.85
2019-01-05T21:29:30.391Z,78.85
2019-01-05T21:32:17.062Z,78.87
2019-01-05T21:34:58.287Z,78.90
2019-01-05T21:37:43.249Z,78.92
2019-01-05T21:40:44.463Z,78.98
2019-01-05T21:43:29.236Z,78.99
2019-01-05T21:46:16.564Z,79.06
2019-01-05T21:49:03.905Z,79.04
2019-01-05T21:51:50.074Z,79.00
2019-01-05T21:54:36.342Z,79.02
2019-01-05T21:57:23.562Z,79.03
2019-01-05T22:00:09.917Z,79.07
2019-01-05T22:02:56.165Z,79.07
2019-01-05T22:05:42.431Z,79.12
2019-01-05T22:08:28.701Z,79.11
2019-01-05T22:11:15.705Z,79.10
2019-01-05T22:14:01.954Z,79.11
2019-01-05T22:19:56.110Z,79.11
2019-01-05T22:22:49.130Z,79.12
2019-01-05T22:25:35.388Z,79.12
2019-01-05T22:28:21.678Z,79.14
2019-01-05T22:31:07.913Z,79.14
2019-01-05T22:33:56.094Z,79.13
2019-01-05T22:40:03.820Z,79.16
2019-01-05T22:42:50.045Z,79.17
2019-01-05T22:45:36.340Z,79.19
2019-01-05T22:48:22.583Z,79.21
2019-01-05T22:51:08.805Z,79.20
2019-01-05T22:53:55.371Z,79.19
2019-01-05T22:56:41.625Z,79.19
2019-01-05T22:59:27.874Z,79.15
2019-01-05T23:02:16.061Z,79.15
2019-01-05T23:05:02.161Z,79.14
2019-01-05T23:07:48.445Z,79.14
2019-01-05T23:10:34.635Z,79.13
2019-01-05T23:16:25.093Z,79.15
2019-01-05T23:22:16.254Z,79.15
2019-01-05T23:25:08.460Z,79.15
2019-01-05T23:27:57.105Z,79.17
2019-01-05T23:30:44.725Z,79.17
2019-01-05T23:33:30.825Z,79.16
2019-01-05T23:36:39.203Z,79.17
2019-01-05T23:39:27.499Z,79.18
2019-01-05T23:42:13.739Z,79.18
2019-01-05T23:44:59.873Z,79.06
2019-01-05T23:47:46.114Z,79.01
2019-01-05T23:50:32.337Z,78.95
2019-01-05T23:53:18.543Z,78.95
2019-01-05T23:56:05.331Z,78.91
2019-01-05T23:58:51.542Z,78.87
